X  CloseMetar Aviation Weather Data     EKSB Sønderborg Airport

Temperature

16°C Temperature

13°C Dewpoint

83% Humidity



Wind

14 KM/H

 9 MPH

 4 M/S

 8 KTS



160°
South South
East
Current Conditions

Data Offline Data Offline
Pressure 995.92 (hPa) - 29.41 (in)
Visibility 0 (mi) - 0 (km)
Airport
Airport-code EKSB

Location Sønderborg Airport 40 (km)

Metar:
EKSB 240120Z AUTO 16008KT 9999NDV ///////// 16/13 Q0996

Time: 24-09-2020 03:20